sensor_id;sensor_type;location;lat;lon;timestamp;pressure;altitude;pressure_sealevel;temperature;humidity
44198;BME280;30157;55.512;37.764;2022-10-31T00:01:32;98343.31;;;-0.97;72.28
44198;BME280;30157;55.512;37.764;2022-10-31T00:03:58;98338.31;;;-0.89;72.51
44198;BME280;30157;55.512;37.764;2022-10-31T00:06:24;98336.84;;;-0.78;72.03
44198;BME280;30157;55.512;37.764;2022-10-31T00:08:55;98292.16;;;-1.08;72.20
44198;BME280;30157;55.512;37.764;2022-10-31T00:11:22;98285.19;;;-1.18;71.78
44198;BME280;30157;55.512;37.764;2022-10-31T00:13:48;98276.75;;;-1.15;71.82
44198;BME280;30157;55.512;37.764;2022-10-31T00:16:24;98320.59;;;-0.85;71.91
44198;BME280;30157;55.512;37.764;2022-10-31T00:18:51;98309.44;;;-0.91;71.63
44198;BME280;30157;55.512;37.764;2022-10-31T00:21:17;98289.69;;;-1.03;71.22
44198;BME280;30157;55.512;37.764;2022-10-31T00:23:43;98321.44;;;-0.84;71.59
44198;BME280;30157;55.512;37.764;2022-10-31T00:26:09;98326.75;;;-0.70;71.03
44198;BME280;30157;55.512;37.764;2022-10-31T00:28:35;98259.97;;;-1.04;71.10
44198;BME280;30157;55.512;37.764;2022-10-31T00:31:05;98316.59;;;-0.69;71.08
44198;BME280;30157;55.512;37.764;2022-10-31T00:33:33;98260.78;;;-1.05;70.55
44198;BME280;30157;55.512;37.764;2022-10-31T00:35:59;98295.25;;;-0.75;70.71
44198;BME280;30157;55.512;37.764;2022-10-31T00:38:25;98306.41;;;-0.69;70.45
44198;BME280;30157;55.512;37.764;2022-10-31T00:40:51;98314.06;;;-0.69;70.66
44198;BME280;30157;55.512;37.764;2022-10-31T00:43:16;98315.84;;;-0.63;70.58
44198;BME280;30157;55.512;37.764;2022-10-31T00:45:42;98309.13;;;-0.58;70.59
44198;BME280;30157;55.512;37.764;2022-10-31T00:48:09;98296.28;;;-0.62;70.39
44198;BME280;30157;55.512;37.764;2022-10-31T00:50:35;98290.41;;;-0.58;69.86
44198;BME280;30157;55.512;37.764;2022-10-31T00:53:01;98226.19;;;-0.92;69.63
44198;BME280;30157;55.512;37.764;2022-10-31T00:55:27;98291.16;;;-0.65;69.92
44198;BME280;30157;55.512;37.764;2022-10-31T00:57:52;98261.91;;;-0.89;69.31
44198;BME280;30157;55.512;37.764;2022-10-31T01:00:19;98269.72;;;-0.78;69.35
44198;BME280;30157;55.512;37.764;2022-10-31T01:02:46;98285.16;;;-0.68;69.56
44198;BME280;30157;55.512;37.764;2022-10-31T01:05:11;98274.91;;;-0.74;69.74
44198;BME280;30157;55.512;37.764;2022-10-31T01:07:38;98276.63;;;-0.71;69.42
44198;BME280;30157;55.512;37.764;2022-10-31T01:10:09;98298.03;;;-0.60;69.25
44198;BME280;30157;55.512;37.764;2022-10-31T01:12:44;98292.03;;;-0.63;69.10
44198;BME280;30157;55.512;37.764;2022-10-31T01:15:12;98303.22;;;-0.55;68.67
44198;BME280;30157;55.512;37.764;2022-10-31T01:17:38;98256.94;;;-0.81;69.07
44198;BME280;30157;55.512;37.764;2022-10-31T01:20:05;98293.72;;;-0.64;68.89
44198;BME280;30157;55.512;37.764;2022-10-31T01:22:32;98293.84;;;-0.56;68.95
44198;BME280;30157;55.512;37.764;2022-10-31T01:25:00;98285.31;;;-0.58;68.36
44198;BME280;30157;55.512;37.764;2022-10-31T01:27:26;98267.19;;;-0.77;68.39
44198;BME280;30157;55.512;37.764;2022-10-31T01:29:52;98295.59;;;-0.54;68.03
44198;BME280;30157;55.512;37.764;2022-10-31T01:32:17;98277.59;;;-0.64;68.34
44198;BME280;30157;55.512;37.764;2022-10-31T01:34:44;98255.38;;;-0.72;68.07
44198;BME280;30157;55.512;37.764;2022-10-31T01:37:12;98258.84;;;-0.66;68.26
44198;BME280;30157;55.512;37.764;2022-10-31T01:39:38;98282.84;;;-0.55;68.62
44198;BME280;30157;55.512;37.764;2022-10-31T01:42:04;98283.72;;;-0.50;68.52
44198;BME280;30157;55.512;37.764;2022-10-31T01:47:01;98250.22;;;-0.76;68.46
44198;BME280;30157;55.512;37.764;2022-10-31T01:49:37;98295.69;;;-0.46;68.18
44198;BME280;30157;55.512;37.764;2022-10-31T01:57:27;98268.41;;;-0.53;68.21
44198;BME280;30157;55.512;37.764;2022-10-31T01:59:58;98142.38;;;-1.33;68.60
44198;BME280;30157;55.512;37.764;2022-10-31T02:02:27;98288.91;;;-0.47;69.17
44198;BME280;30157;55.512;37.764;2022-10-31T02:04:54;98259.66;;;-0.69;69.28
44198;BME280;30157;55.512;37.764;2022-10-31T02:07:25;98252.78;;;-0.76;69.67
44198;BME280;30157;55.512;37.764;2022-10-31T02:09:54;98302.38;;;-0.53;70.38
44198;BME280;30157;55.512;37.764;2022-10-31T02:12:22;98294.66;;;-0.60;70.69
44198;BME280;30157;55.512;37.764;2022-10-31T02:14:48;98235.59;;;-0.88;71.14
44198;BME280;30157;55.512;37.764;2022-10-31T02:17:14;98302.34;;;-0.56;71.66
44198;BME280;30157;55.512;37.764;2022-10-31T02:28:25;98311.69;;;-0.56;72.78
44198;BME280;30157;55.512;37.764;2022-10-31T02:33:51;98307.44;;;-0.56;73.51
44198;BME280;30157;55.512;37.764;2022-10-31T02:45:00;98292.66;;;-0.77;75.91
44198;BME280;30157;55.512;37.764;2022-10-31T02:47:33;98245.47;;;-1.08;76.30
44198;BME280;30157;55.512;37.764;2022-10-31T02:50:03;98249.78;;;-1.04;76.37
44198;BME280;30157;55.512;37.764;2022-10-31T02:52:33;98208.53;;;-1.35;76.66
44198;BME280;30157;55.512;37.764;2022-10-31T02:58:07;98308.88;;;-0.72;77.76
44198;BME280;30157;55.512;37.764;2022-10-31T03:06:36;98294.06;;;-0.96;78.85
44198;BME280;30157;55.512;37.764;2022-10-31T03:09:27;98258.94;;;-1.15;79.62
44198;BME280;30157;55.512;37.764;2022-10-31T03:12:12;98298.31;;;-0.95;80.36
44198;BME280;30157;55.512;37.764;2022-10-31T03:14:48;98306.00;;;-0.93;80.83
44198;BME280;30157;55.512;37.764;2022-10-31T03:17:26;98305.94;;;-0.96;81.05
44198;BME280;30157;55.512;37.764;2022-10-31T03:19:58;98293.91;;;-1.05;80.99
44198;BME280;30157;55.512;37.764;2022-10-31T03:22:29;98257.03;;;-1.27;81.72
44198;BME280;30157;55.512;37.764;2022-10-31T03:25:01;98291.31;;;-1.07;81.94
44198;BME280;30157;55.512;37.764;2022-10-31T03:27:33;98320.41;;;-0.95;82.33
44198;BME280;30157;55.512;37.764;2022-10-31T03:30:03;98308.50;;;-0.95;82.28
44198;BME280;30157;55.512;37.764;2022-10-31T03:32:38;98305.91;;;-0.99;82.45
44198;BME280;30157;55.512;37.764;2022-10-31T03:35:08;98316.88;;;-1.02;82.36
44198;BME280;30157;55.512;37.764;2022-10-31T03:37:37;98244.03;;;-1.43;82.72
44198;BME280;30157;55.512;37.764;2022-10-31T03:40:10;98317.84;;;-0.97;82.58
44198;BME280;30157;55.512;37.764;2022-10-31T03:42:41;98290.47;;;-1.07;82.77
44198;BME280;30157;55.512;37.764;2022-10-31T03:45:12;98263.06;;;-1.22;82.61
44198;BME280;30157;55.512;37.764;2022-10-31T03:47:41;98311.03;;;-0.96;82.60
44198;BME280;30157;55.512;37.764;2022-10-31T03:50:09;98318.84;;;-0.87;81.82
44198;BME280;30157;55.512;37.764;2022-10-31T03:55:33;98310.19;;;-0.97;81.19
44198;BME280;30157;55.512;37.764;2022-10-31T03:58:06;98144.69;;;-1.98;80.44
44198;BME280;30157;55.512;37.764;2022-10-31T04:00:35;98307.56;;;-1.00;79.88
44198;BME280;30157;55.512;37.764;2022-10-31T04:03:16;98316.25;;;-0.90;79.71
44198;BME280;30157;55.512;37.764;2022-10-31T04:05:46;98310.13;;;-0.98;79.84
44198;BME280;30157;55.512;37.764;2022-10-31T04:08:17;98258.03;;;-1.19;80.03
44198;BME280;30157;55.512;37.764;2022-10-31T04:10:48;98312.03;;;-0.88;79.99
44198;BME280;30157;55.512;37.764;2022-10-31T04:13:23;98321.28;;;-0.92;80.10
44198;BME280;30157;55.512;37.764;2022-10-31T04:15:58;98321.38;;;-0.89;80.23
44198;BME280;30157;55.512;37.764;2022-10-31T04:18:25;98280.91;;;-1.21;80.45
44198;BME280;30157;55.512;37.764;2022-10-31T04:21:01;98336.63;;;-0.90;80.41
44198;BME280;30157;55.512;37.764;2022-10-31T04:23:27;98345.09;;;-0.91;80.97
44198;BME280;30157;55.512;37.764;2022-10-31T04:25:54;98292.75;;;-1.23;80.96
44198;BME280;30157;55.512;37.764;2022-10-31T04:28:20;98289.22;;;-1.29;80.61
44198;BME280;30157;55.512;37.764;2022-10-31T04:30:45;98339.88;;;-0.97;80.95
44198;BME280;30157;55.512;37.764;2022-10-31T04:33:11;98307.13;;;-1.26;81.21
44198;BME280;30157;55.512;37.764;2022-10-31T04:35:37;98295.25;;;-1.24;81.09
44198;BME280;30157;55.512;37.764;2022-10-31T04:38:04;98352.75;;;-0.91;81.17
44198;BME280;30157;55.512;37.764;2022-10-31T04:40:30;98321.84;;;-1.10;81.12
44198;BME280;30157;55.512;37.764;2022-10-31T04:43:14;98331.00;;;-1.21;80.82
44198;BME280;30157;55.512;37.764;2022-10-31T04:45:42;98367.13;;;-0.93;81.17
44198;BME280;30157;55.512;37.764;2022-10-31T04:48:09;98353.50;;;-0.95;81.37
44198;BME280;30157;55.512;37.764;2022-10-31T04:50:35;98352.53;;;-1.04;81.42
44198;BME280;30157;55.512;37.764;2022-10-31T04:53:01;98362.00;;;-0.95;81.11
44198;BME280;30157;55.512;37.764;2022-10-31T04:55:32;98301.31;;;-1.19;80.90
44198;BME280;30157;55.512;37.764;2022-10-31T04:58:16;98327.72;;;-1.12;81.10
44198;BME280;30157;55.512;37.764;2022-10-31T05:00:42;98369.88;;;-0.81;81.31
44198;BME280;30157;55.512;37.764;2022-10-31T05:03:08;98377.56;;;-0.79;80.99
44198;BME280;30157;55.512;37.764;2022-10-31T05:05:34;98364.75;;;-0.84;81.14
44198;BME280;30157;55.512;37.764;2022-10-31T05:08:02;98385.25;;;-0.78;80.51
44198;BME280;30157;55.512;37.764;2022-10-31T05:10:30;98386.09;;;-0.77;80.51
44198;BME280;30157;55.512;37.764;2022-10-31T05:13:00;98381.00;;;-0.77;80.45
44198;BME280;30157;55.512;37.764;2022-10-31T05:15:45;98367.25;;;-0.87;80.20
44198;BME280;30157;55.512;37.764;2022-10-31T05:18:16;98349.25;;;-0.96;79.69
44198;BME280;30157;55.512;37.764;2022-10-31T05:20:42;98343.97;;;-1.06;79.93
44198;BME280;30157;55.512;37.764;2022-10-31T05:23:24;98350.09;;;-0.96;79.91
44198;BME280;30157;55.512;37.764;2022-10-31T05:25:49;98391.31;;;-0.71;79.89
44198;BME280;30157;55.512;37.764;2022-10-31T05:28:16;98403.34;;;-0.62;80.08
44198;BME280;30157;55.512;37.764;2022-10-31T05:30:42;98398.03;;;-0.75;80.02
44198;BME280;30157;55.512;37.764;2022-10-31T05:33:12;98414.31;;;-0.66;79.98
44198;BME280;30157;55.512;37.764;2022-10-31T05:35:55;98398.81;;;-0.79;79.41
44198;BME280;30157;55.512;37.764;2022-10-31T05:38:24;98402.19;;;-0.78;79.43
44198;BME280;30157;55.512;37.764;2022-10-31T05:40:50;98419.41;;;-0.65;79.37
44198;BME280;30157;55.512;37.764;2022-10-31T05:43:15;98420.47;;;-0.55;78.87
44198;BME280;30157;55.512;37.764;2022-10-31T05:45:41;98418.75;;;-0.56;78.71
44198;BME280;30157;55.512;37.764;2022-10-31T05:48:18;98399.81;;;-0.69;78.59
44198;BME280;30157;55.512;37.764;2022-10-31T05:51:02;98417.88;;;-0.57;78.72
44198;BME280;30157;55.512;37.764;2022-10-31T05:53:27;98424.69;;;-0.56;78.63
44198;BME280;30157;55.512;37.764;2022-10-31T05:55:54;98434.13;;;-0.50;78.38
44198;BME280;30157;55.512;37.764;2022-10-31T05:58:21;98428.03;;;-0.58;78.44
44198;BME280;30157;55.512;37.764;2022-10-31T06:00:59;98279.50;;;-1.52;78.41
44198;BME280;30157;55.512;37.764;2022-10-31T06:03:25;98456.25;;;-0.47;78.22
44198;BME280;30157;55.512;37.764;2022-10-31T06:05:55;98448.63;;;-0.47;78.59
44198;BME280;30157;55.512;37.764;2022-10-31T06:08:24;98397.88;;;-0.82;78.60
44198;BME280;30157;55.512;37.764;2022-10-31T06:10:50;98416.75;;;-0.73;78.66
44198;BME280;30157;55.512;37.764;2022-10-31T06:13:22;98468.34;;;-0.37;78.25
44198;BME280;30157;55.512;37.764;2022-10-31T06:15:58;98451.97;;;-0.50;78.70
44198;BME280;30157;55.512;37.764;2022-10-31T06:18:30;98458.03;;;-0.43;78.29
44198;BME280;30157;55.512;37.764;2022-10-31T06:20:55;98458.91;;;-0.43;78.41
44198;BME280;30157;55.512;37.764;2022-10-31T06:23:22;98462.28;;;-0.44;78.59
44198;BME280;30157;55.512;37.764;2022-10-31T06:25:52;98447.59;;;-0.57;78.63
44198;BME280;30157;55.512;37.764;2022-10-31T06:28:18;98481.16;;;-0.32;79.04
44198;BME280;30157;55.512;37.764;2022-10-31T06:31:04;98471.75;;;-0.35;78.96
44198;BME280;30157;55.512;37.764;2022-10-31T06:33:30;98517.22;;;-0.12;78.76
44198;BME280;30157;55.512;37.764;2022-10-31T06:36:00;98490.72;;;-0.21;79.29
44198;BME280;30157;55.512;37.764;2022-10-31T06:38:27;98504.41;;;-0.17;79.16
44198;BME280;30157;55.512;37.764;2022-10-31T06:40:54;98525.81;;;-0.07;79.05
44198;BME280;30157;55.512;37.764;2022-10-31T06:43:21;98530.06;;;-0.08;79.11
44198;BME280;30157;55.512;37.764;2022-10-31T06:45:48;98536.88;;;-0.07;79.45
44198;BME280;30157;55.512;37.764;2022-10-31T06:48:27;98531.72;;;-0.10;79.65
44198;BME280;30157;55.512;37.764;2022-10-31T06:51:18;98493.84;;;-0.37;79.72
44198;BME280;30157;55.512;37.764;2022-10-31T06:53:45;98551.41;;;-0.03;79.96
44198;BME280;30157;55.512;37.764;2022-10-31T06:56:12;98555.63;;;-0.05;79.86
44198;BME280;30157;55.512;37.764;2022-10-31T06:58:46;98570.03;;;-0.07;80.18
44198;BME280;30157;55.512;37.764;2022-10-31T07:01:12;98575.25;;;0.01;80.02
44198;BME280;30157;55.512;37.764;2022-10-31T07:03:38;98576.22;;;0.08;80.27
44198;BME280;30157;55.512;37.764;2022-10-31T07:06:05;98449.13;;;-0.69;79.73
44198;BME280;30157;55.512;37.764;2022-10-31T07:08:32;98506.81;;;-0.23;79.74
44198;BME280;30157;55.512;37.764;2022-10-31T07:10:57;98508.53;;;-0.24;79.33
44198;BME280;30157;55.512;37.764;2022-10-31T07:13:24;98576.59;;;0.29;78.83
44198;BME280;30157;55.512;37.764;2022-10-31T07:16:01;98534.69;;;0.15;78.69
44198;BME280;30157;55.512;37.764;2022-10-31T07:18:27;98572.63;;;0.47;78.17
44198;BME280;30157;55.512;37.764;2022-10-31T07:20:53;98583.88;;;0.58;78.13
44198;BME280;30157;55.512;37.764;2022-10-31T07:23:20;98603.56;;;0.67;78.29
44198;BME280;30157;55.512;37.764;2022-10-31T07:25:59;98545.13;;;0.29;77.86
44198;BME280;30157;55.512;37.764;2022-10-31T07:28:31;98616.91;;;1.06;77.51
44198;BME280;30157;55.512;37.764;2022-10-31T07:30:59;98631.06;;;1.45;75.60
44198;BME280;30157;55.512;37.764;2022-10-31T07:33:25;98599.06;;;1.10;75.50
44198;BME280;30157;55.512;37.764;2022-10-31T07:36:16;98642.50;;;1.07;76.21
44198;BME280;30157;55.512;37.764;2022-10-31T07:38:44;98643.78;;;0.80;76.34
44198;BME280;30157;55.512;37.764;2022-10-31T07:41:10;98667.56;;;0.75;77.21
44198;BME280;30157;55.512;37.764;2022-10-31T07:43:40;98670.00;;;0.69;77.62
44198;BME280;30157;55.512;37.764;2022-10-31T07:46:07;98675.97;;;0.68;77.63
44198;BME280;30157;55.512;37.764;2022-10-31T07:48:51;98681.91;;;0.66;77.54
44198;BME280;30157;55.512;37.764;2022-10-31T07:51:35;98594.84;;;0.02;77.91
44198;BME280;30157;55.512;37.764;2022-10-31T07:54:19;98700.56;;;0.62;78.33
44198;BME280;30157;55.512;37.764;2022-10-31T07:56:46;98702.31;;;0.65;78.70
44198;BME280;30157;55.512;37.764;2022-10-31T07:59:13;98700.63;;;0.67;78.64
44198;BME280;30157;55.512;37.764;2022-10-31T08:01:43;98728.09;;;0.80;78.10
44198;BME280;30157;55.512;37.764;2022-10-31T08:04:32;98722.38;;;0.95;78.10
44198;BME280;30157;55.512;37.764;2022-10-31T08:07:17;98711.50;;;1.09;77.03
44198;BME280;30157;55.512;37.764;2022-10-31T08:09:50;98682.94;;;2.02;75.16
44198;BME280;30157;55.512;37.764;2022-10-31T08:12:20;98700.41;;;3.48;71.03
44198;BME280;30157;55.512;37.764;2022-10-31T08:14:52;98712.78;;;5.58;62.45
44198;BME280;30157;55.512;37.764;2022-10-31T08:17:19;98698.81;;;6.28;60.00
44198;BME280;30157;55.512;37.764;2022-10-31T08:19:56;98646.06;;;6.76;56.10
44198;BME280;30157;55.512;37.764;2022-10-31T08:22:32;98718.34;;;7.69;53.85
44198;BME280;30157;55.512;37.764;2022-10-31T08:25:02;98701.63;;;7.99;52.07
44198;BME280;30157;55.512;37.764;2022-10-31T08:27:29;98718.66;;;8.81;51.33
44198;BME280;30157;55.512;37.764;2022-10-31T08:29:58;98743.41;;;8.99;49.65
44198;BME280;30157;55.512;37.764;2022-10-31T08:32:24;98728.63;;;8.47;50.30
44198;BME280;30157;55.512;37.764;2022-10-31T08:34:55;98724.41;;;8.38;50.66
44198;BME280;30157;55.512;37.764;2022-10-31T08:37:29;98750.59;;;7.26;53.80
44198;BME280;30157;55.512;37.764;2022-10-31T08:39:55;98702.50;;;5.34;56.89
44198;BME280;30157;55.512;37.764;2022-10-31T08:42:21;98777.03;;;4.43;61.00
44198;BME280;30157;55.512;37.764;2022-10-31T08:44:47;98779.97;;;3.54;64.71
44198;BME280;30157;55.512;37.764;2022-10-31T08:47:13;98771.81;;;2.95;67.09
44198;BME280;30157;55.512;37.764;2022-10-31T08:49:38;98750.34;;;2.82;67.85
44198;BME280;30157;55.512;37.764;2022-10-31T08:52:04;98801.88;;;3.12;68.46
44198;BME280;30157;55.512;37.764;2022-10-31T08:54:35;98816.16;;;2.86;69.27
44198;BME280;30157;55.512;37.764;2022-10-31T08:57:20;98824.28;;;2.48;70.50
44198;BME280;30157;55.512;37.764;2022-10-31T08:59:47;98791.44;;;2.13;71.36
44198;BME280;30157;55.512;37.764;2022-10-31T09:02:33;98826.72;;;2.38;71.49
44198;BME280;30157;55.512;37.764;2022-10-31T09:05:02;98824.88;;;2.29;71.27
44198;BME280;30157;55.512;37.764;2022-10-31T09:07:29;98826.72;;;2.38;70.95
44198;BME280;30157;55.512;37.764;2022-10-31T09:09:55;98732.94;;;1.77;70.87
44198;BME280;30157;55.512;37.764;2022-10-31T09:12:23;98832.06;;;2.56;70.69
44198;BME280;30157;55.512;37.764;2022-10-31T09:15:08;98832.66;;;3.13;69.87
44198;BME280;30157;55.512;37.764;2022-10-31T09:17:48;98769.94;;;2.77;69.11
44198;BME280;30157;55.512;37.764;2022-10-31T09:20:38;98838.50;;;3.01;67.79
44198;BME280;30157;55.512;37.764;2022-10-31T09:23:25;98806.63;;;2.73;67.55
44198;BME280;30157;55.512;37.764;2022-10-31T09:25:53;98836.66;;;2.85;66.72
44198;BME280;30157;55.512;37.764;2022-10-31T09:28:29;98780.47;;;2.25;66.41
44198;BME280;30157;55.512;37.764;2022-10-31T09:30:59;98799.13;;;2.15;66.19
44198;BME280;30157;55.512;37.764;2022-10-31T09:33:43;98708.72;;;1.51;66.00
44198;BME280;30157;55.512;37.764;2022-10-31T09:36:44;98864.34;;;2.45;65.38
44198;BME280;30157;55.512;37.764;2022-10-31T09:39:19;98859.13;;;2.35;65.06
44198;BME280;30157;55.512;37.764;2022-10-31T09:50:26;98875.47;;;2.45;65.52
44198;BME280;30157;55.512;37.764;2022-10-31T09:53:26;98863.66;;;2.57;66.19
44198;BME280;30157;55.512;37.764;2022-10-31T09:55:54;98891.13;;;2.68;65.36
44198;BME280;30157;55.512;37.764;2022-10-31T09:58:24;98899.66;;;2.69;64.88
44198;BME280;30157;55.512;37.764;2022-10-31T10:00:52;98920.13;;;2.64;64.71
44198;BME280;30157;55.512;37.764;2022-10-31T10:03:35;98908.84;;;2.51;63.71
44198;BME280;30157;55.512;37.764;2022-10-31T10:06:23;98815.91;;;1.93;63.12
44198;BME280;30157;55.512;37.764;2022-10-31T10:09:12;98941.31;;;2.52;63.48
44198;BME280;30157;55.512;37.764;2022-10-31T10:12:16;98906.25;;;2.47;63.35
44198;BME280;30157;55.512;37.764;2022-10-31T10:14:52;98929.59;;;2.70;62.93
44198;BME280;30157;55.512;37.764;2022-10-31T10:25:43;98920.09;;;2.63;63.97
44198;BME280;30157;55.512;37.764;2022-10-31T10:28:19;98931.44;;;2.82;64.08
44198;BME280;30157;55.512;37.764;2022-10-31T10:31:03;98945.16;;;2.85;64.21
44198;BME280;30157;55.512;37.764;2022-10-31T10:36:48;98989.06;;;2.49;65.17
44198;BME280;30157;55.512;37.764;2022-10-31T10:39:27;98988.06;;;2.38;66.39
44198;BME280;30157;55.512;37.764;2022-10-31T10:41:57;98985.47;;;2.34;67.16
44198;BME280;30157;55.512;37.764;2022-10-31T10:44:46;98797.69;;;1.16;67.29
44198;BME280;30157;55.512;37.764;2022-10-31T10:47:40;98995.09;;;2.51;67.69
44198;BME280;30157;55.512;37.764;2022-10-31T10:50:17;98997.97;;;2.76;67.30
44198;BME280;30157;55.512;37.764;2022-10-31T10:55:42;98851.50;;;1.79;66.78
44198;BME280;30157;55.512;37.764;2022-10-31T10:58:10;98985.63;;;2.45;67.77
44198;BME280;30157;55.512;37.764;2022-10-31T11:00:46;99019.78;;;2.46;68.28
44198;BME280;30157;55.512;37.764;2022-10-31T11:03:16;98967.53;;;2.33;68.51
44198;BME280;30157;55.512;37.764;2022-10-31T11:05:53;98985.03;;;2.66;68.37
44198;BME280;30157;55.512;37.764;2022-10-31T11:08:29;99005.78;;;2.83;67.76
44198;BME280;30157;55.512;37.764;2022-10-31T11:10:58;98990.16;;;2.66;67.67
44198;BME280;30157;55.512;37.764;2022-10-31T11:13:25;99009.06;;;2.73;67.90
44198;BME280;30157;55.512;37.764;2022-10-31T11:16:11;98956.44;;;2.35;68.28
44198;BME280;30157;55.512;37.764;2022-10-31T11:18:45;99014.00;;;2.59;68.31
44198;BME280;30157;55.512;37.764;2022-10-31T11:21:26;99013.88;;;2.51;69.30
44198;BME280;30157;55.512;37.764;2022-10-31T11:24:13;99006.03;;;2.41;69.77
44198;BME280;30157;55.512;37.764;2022-10-31T11:26:41;98979.31;;;2.23;70.07
44198;BME280;30157;55.512;37.764;2022-10-31T11:29:20;99000.13;;;2.45;70.54
44198;BME280;30157;55.512;37.764;2022-10-31T11:31:46;98932.91;;;2.01;70.89
44198;BME280;30157;55.512;37.764;2022-10-31T11:34:37;99006.75;;;2.32;70.95
44198;BME280;30157;55.512;37.764;2022-10-31T11:37:23;98957.63;;;1.99;70.71
44198;BME280;30157;55.512;37.764;2022-10-31T11:39:55;99000.53;;;2.16;70.33
44198;BME280;30157;55.512;37.764;2022-10-31T11:42:36;98917.69;;;1.57;70.36
44198;BME280;30157;55.512;37.764;2022-10-31T11:45:13;99014.16;;;2.15;70.26
44198;BME280;30157;55.512;37.764;2022-10-31T11:47:41;99009.03;;;2.13;69.85
44198;BME280;30157;55.512;37.764;2022-10-31T11:50:10;99006.50;;;2.15;70.23
44198;BME280;30157;55.512;37.764;2022-10-31T11:52:38;99008.28;;;2.22;70.08
44198;BME280;30157;55.512;37.764;2022-10-31T11:57:47;99015.88;;;2.14;69.72
44198;BME280;30157;55.512;37.764;2022-10-31T12:00:23;99035.56;;;2.17;70.02
44198;BME280;30157;55.512;37.764;2022-10-31T12:03:27;99026.97;;;2.15;69.86
44198;BME280;30157;55.512;37.764;2022-10-31T12:06:00;98962.25;;;1.70;68.70
44198;BME280;30157;55.512;37.764;2022-10-31T12:08:31;99046.53;;;2.11;69.04
44198;BME280;30157;55.512;37.764;2022-10-31T12:16:47;99032.63;;;1.95;69.28
44198;BME280;30157;55.512;37.764;2022-10-31T12:33:19;99033.97;;;1.75;69.57
44198;BME280;30157;55.512;37.764;2022-10-31T12:44:13;99083.81;;;1.95;71.04
44198;BME280;30157;55.512;37.764;2022-10-31T12:47:07;99024.31;;;1.60;71.50
44198;BME280;30157;55.512;37.764;2022-10-31T12:57:56;99084.53;;;1.88;73.29
44198;BME280;30157;55.512;37.764;2022-10-31T13:00:24;99087.03;;;1.85;73.96
44198;BME280;30157;55.512;37.764;2022-10-31T13:02:56;99064.66;;;1.75;74.14
44198;BME280;30157;55.512;37.764;2022-10-31T13:05:34;98917.25;;;0.87;74.07
44198;BME280;30157;55.512;37.764;2022-10-31T13:08:16;99086.13;;;1.83;74.28
44198;BME280;30157;55.512;37.764;2022-10-31T13:10:52;98942.91;;;0.93;74.39
44198;BME280;30157;55.512;37.764;2022-10-31T13:13:32;99080.81;;;1.72;74.82
44198;BME280;30157;55.512;37.764;2022-10-31T13:16:20;99090.25;;;1.75;74.94
44198;BME280;30157;55.512;37.764;2022-10-31T13:18:48;99089.53;;;1.82;75.33
44198;BME280;30157;55.512;37.764;2022-10-31T13:24:04;99078.94;;;1.62;75.66
44198;BME280;30157;55.512;37.764;2022-10-31T13:26:44;99090.88;;;1.63;75.67
44198;BME280;30157;55.512;37.764;2022-10-31T13:31:43;99104.72;;;1.73;75.71
44198;BME280;30157;55.512;37.764;2022-10-31T13:34:41;99112.41;;;1.74;76.02
44198;BME280;30157;55.512;37.764;2022-10-31T13:37:27;99111.69;;;1.81;75.63
44198;BME280;30157;55.512;37.764;2022-10-31T13:42:45;99017.59;;;1.21;75.04
44198;BME280;30157;55.512;37.764;2022-10-31T13:45:22;99109.25;;;1.86;75.09
44198;BME280;30157;55.512;37.764;2022-10-31T13:48:00;99117.75;;;1.85;75.32
44198;BME280;30157;55.512;37.764;2022-10-31T13:50:31;99111.63;;;1.77;74.96
44198;BME280;30157;55.512;37.764;2022-10-31T13:53:19;99125.56;;;1.91;74.62
44198;BME280;30157;55.512;37.764;2022-10-31T13:55:48;99097.13;;;1.79;74.31
44198;BME280;30157;55.512;37.764;2022-10-31T13:58:23;99073.09;;;1.69;73.67
44198;BME280;30157;55.512;37.764;2022-10-31T14:00:59;99127.34;;;1.97;74.16
44198;BME280;30157;55.512;37.764;2022-10-31T14:03:29;99129.94;;;1.98;73.85
44198;BME280;30157;55.512;37.764;2022-10-31T14:05:55;99110.78;;;1.78;74.28
44198;BME280;30157;55.512;37.764;2022-10-31T14:08:24;99129.13;;;1.99;74.49
44198;BME280;30157;55.512;37.764;2022-10-31T14:10:52;99073.78;;;1.60;74.47
44198;BME280;30157;55.512;37.764;2022-10-31T14:13:52;99143.59;;;1.99;74.41
44198;BME280;30157;55.512;37.764;2022-10-31T14:16:20;99111.66;;;1.78;74.63
44198;BME280;30157;55.512;37.764;2022-10-31T14:18:56;99137.50;;;1.92;74.69
44198;BME280;30157;55.512;37.764;2022-10-31T14:23:50;99073.66;;;1.54;74.79
44198;BME280;30157;55.512;37.764;2022-10-31T14:29:21;99165.03;;;2.04;75.36
44198;BME280;30157;55.512;37.764;2022-10-31T14:32:04;99163.22;;;1.98;75.36
44198;BME280;30157;55.512;37.764;2022-10-31T14:51:36;99183.88;;;2.08;74.73
44198;BME280;30157;55.512;37.764;2022-10-31T14:54:05;99191.53;;;2.06;74.64
44198;BME280;30157;55.512;37.764;2022-10-31T14:56:33;99193.03;;;1.96;74.75
44198;BME280;30157;55.512;37.764;2022-10-31T14:59:03;99210.31;;;2.08;75.06
44198;BME280;30157;55.512;37.764;2022-10-31T15:01:34;99179.34;;;1.94;74.46
44198;BME280;30157;55.512;37.764;2022-10-31T15:04:13;99218.84;;;2.07;74.44
44198;BME280;30157;55.512;37.764;2022-10-31T15:06:42;99216.25;;;2.06;74.69
44198;BME280;30157;55.512;37.764;2022-10-31T15:09:27;99199.84;;;1.96;74.79
44198;BME280;30157;55.512;37.764;2022-10-31T15:11:53;99198.94;;;1.94;74.49
44198;BME280;30157;55.512;37.764;2022-10-31T15:14:37;99206.72;;;1.98;74.23
44198;BME280;30157;55.512;37.764;2022-10-31T15:17:03;99184.28;;;1.85;74.01
44198;BME280;30157;55.512;37.764;2022-10-31T15:19:30;99215.34;;;2.02;74.39
44198;BME280;30157;55.512;37.764;2022-10-31T15:21:58;99242.81;;;2.11;74.35
44198;BME280;30157;55.512;37.764;2022-10-31T15:24:34;99172.09;;;1.73;74.21
44198;BME280;30157;55.512;37.764;2022-10-31T15:27:00;99099.38;;;1.19;73.96
44198;BME280;30157;55.512;37.764;2022-10-31T15:29:27;99239.22;;;2.03;74.09
44198;BME280;30157;55.512;37.764;2022-10-31T15:32:01;99188.22;;;1.69;74.08
44198;BME280;30157;55.512;37.764;2022-10-31T15:34:37;99244.44;;;2.07;73.85